Terminal Aerodrome Forecast
Issued by NWS

Home | Current Version | Previous Version | Graphics & Text | Print | Product List | Glossary On
Versions: 1 2 3 4 5 6 7 8 9 10 11 12 13 14 15 16 17 18
000
FTUS43 KBIS 242000 AAA
TAFJMS
TAF AMD
KJMS 242050Z 2421/2518 02008KT 1SM -SN OVC020
     FM250000 33011KT 2SM -SN BR OVC006
     FM251200 35007KT P6SM OVC025=

USA.gov is the U.S. government's official web portal to all federal, state and local government web resources and services.